createdAt,value
2022-12-01T00:01:35.348Z,51.20
2022-12-01T00:04:03.127Z,48.80
2022-12-01T00:06:31.923Z,44.90
2022-12-01T00:09:20.293Z,41.70
2022-12-01T00:11:50.097Z,41.00
2022-12-01T00:16:46.068Z,39.40
2022-12-01T00:19:15.127Z,48.80
2022-12-01T00:21:42.984Z,46.00
2022-12-01T00:24:12.104Z,44.30
2022-12-01T00:26:40.332Z,43.60
2022-12-01T00:29:09.096Z,44.80
2022-12-01T00:31:37.630Z,42.90
2022-12-01T00:34:11.070Z,40.90
2022-12-01T00:36:39.469Z,44.80
2022-12-01T00:39:09.777Z,46.30
2022-12-01T00:44:05.538Z,38.70
2022-12-01T00:46:33.639Z,37.60
2022-12-01T00:49:01.467Z,42.30
2022-12-01T00:51:31.092Z,40.00
2022-12-01T00:53:59.514Z,42.20
2022-12-01T00:56:27.238Z,39.60
2022-12-01T00:58:55.073Z,39.40
2022-12-01T01:01:50.001Z,43.70
2022-12-01T01:04:21.778Z,43.20
2022-12-01T01:06:51.509Z,38.20
2022-12-01T01:09:22.328Z,41.30
2022-12-01T01:11:53.350Z,38.00
2022-12-01T01:14:22.270Z,38.60
2022-12-01T01:16:51.652Z,41.20
2022-12-01T01:19:20.707Z,41.90
2022-12-01T01:21:52.450Z,37.40
2022-12-01T01:24:25.122Z,37.60
2022-12-01T01:26:56.567Z,39.40
2022-12-01T01:29:26.442Z,37.00
2022-12-01T01:31:54.477Z,39.00
2022-12-01T01:34:22.303Z,40.50
2022-12-01T01:36:50.248Z,38.10
2022-12-01T01:39:17.981Z,39.10
2022-12-01T01:41:45.693Z,37.20
2022-12-01T01:44:47.014Z,32.50
2022-12-01T01:47:17.350Z,34.30
2022-12-01T01:49:45.172Z,36.80
2022-12-01T01:52:14.507Z,35.60
2022-12-01T01:54:46.522Z,36.20
2022-12-01T01:57:20.695Z,35.70
2022-12-01T01:59:54.436Z,33.30
2022-12-01T02:02:22.187Z,39.00
2022-12-01T02:04:54.760Z,36.30
2022-12-01T02:07:22.736Z,34.20
2022-12-01T02:09:50.596Z,32.90
2022-12-01T02:12:30.758Z,31.20
2022-12-01T02:15:20.231Z,30.70
2022-12-01T02:18:07.069Z,30.30
2022-12-01T02:21:02.586Z,36.70
2022-12-01T02:23:42.781Z,36.00
2022-12-01T02:26:31.883Z,34.00
2022-12-01T02:29:38.932Z,30.80
2022-12-01T02:32:28.882Z,34.80
2022-12-01T02:35:05.776Z,36.10
2022-12-01T02:37:47.969Z,37.60
2022-12-01T02:40:42.560Z,37.00
2022-12-01T02:43:19.572Z,35.10
2022-12-01T02:45:58.640Z,35.70
2022-12-01T02:48:38.684Z,30.90
2022-12-01T02:51:12.775Z,30.00
2022-12-01T02:53:40.994Z,37.00
2022-12-01T02:56:12.656Z,38.20
2022-12-01T02:58:40.408Z,37.20
2022-12-01T03:02:05.877Z,36.90
2022-12-01T03:04:46.249Z,37.30
2022-12-01T03:07:27.110Z,37.60
2022-12-01T03:10:26.324Z,43.10
2022-12-01T03:13:05.556Z,40.50
2022-12-01T03:15:59.754Z,35.00
2022-12-01T03:18:39.910Z,34.60
2022-12-01T03:21:15.316Z,31.40
2022-12-01T03:23:48.524Z,37.00
2022-12-01T03:26:21.450Z,35.00
2022-12-01T03:28:54.598Z,31.90
2022-12-01T03:31:32.110Z,32.80
2022-12-01T03:34:06.742Z,36.00
2022-12-01T03:36:43.160Z,35.50
2022-12-01T03:39:20.714Z,36.50
2022-12-01T03:42:04.657Z,35.90
2022-12-01T03:44:44.043Z,39.10
2022-12-01T03:51:04.310Z,37.30
2022-12-01T03:53:43.408Z,38.30
2022-12-01T03:56:13.665Z,38.50
2022-12-01T03:58:45.576Z,42.30
2022-12-01T04:01:13.480Z,34.40
2022-12-01T04:03:41.343Z,39.10
2022-12-01T04:06:09.234Z,36.40
2022-12-01T04:08:37.606Z,37.10
2022-12-01T04:11:30.947Z,45.20
2022-12-01T04:14:00.499Z,40.80
2022-12-01T04:16:28.297Z,43.10
2022-12-01T04:18:56.052Z,41.90
2022-12-01T04:21:24.043Z,41.50
2022-12-01T04:24:00.904Z,44.00
2022-12-01T04:26:34.132Z,38.90
2022-12-01T04:29:05.548Z,37.60
2022-12-01T04:31:33.702Z,41.00
2022-12-01T04:34:01.884Z,41.20
2022-12-01T04:36:32.140Z,41.30
2022-12-01T04:39:00.183Z,41.40
2022-12-01T04:41:28.061Z,40.30
2022-12-01T04:43:56.481Z,40.60
2022-12-01T04:46:24.756Z,38.20
2022-12-01T04:48:52.485Z,40.30
2022-12-01T04:51:21.464Z,40.70
2022-12-01T04:53:50.634Z,41.40
2022-12-01T04:56:18.751Z,43.80
2022-12-01T04:58:46.578Z,36.60
2022-12-01T05:01:17.254Z,43.70
2022-12-01T05:03:49.535Z,46.30
2022-12-01T05:06:20.785Z,39.80
2022-12-01T05:08:49.181Z,40.40
2022-12-01T05:11:18.470Z,47.00
2022-12-01T05:13:47.822Z,41.90
2022-12-01T05:18:50.837Z,37.80
2022-12-01T05:21:18.730Z,41.40
2022-12-01T05:23:46.649Z,44.30
2022-12-01T05:26:14.334Z,46.10
2022-12-01T05:28:42.129Z,42.20
2022-12-01T05:31:09.905Z,39.20
2022-12-01T05:33:37.855Z,41.80
2022-12-01T05:36:05.905Z,42.90
2022-12-01T05:38:33.637Z,42.80
2022-12-01T05:41:01.723Z,44.50
2022-12-01T05:43:29.847Z,49.20
2022-12-01T05:45:58.306Z,43.50
2022-12-01T05:48:26.184Z,41.90
2022-12-01T05:50:54.013Z,43.20
2022-12-01T05:53:21.897Z,37.10
2022-12-01T05:55:54.431Z,44.30
2022-12-01T05:58:22.709Z,43.10
2022-12-01T06:00:50.411Z,42.40
2022-12-01T06:03:18.328Z,44.40
2022-12-01T06:05:46.025Z,42.10
2022-12-01T06:08:13.722Z,40.90
2022-12-01T06:10:41.675Z,41.10
2022-12-01T06:13:09.346Z,40.40
2022-12-01T06:15:37.434Z,44.60
2022-12-01T06:18:05.297Z,41.30
2022-12-01T06:20:33.089Z,43.20
2022-12-01T06:23:00.990Z,45.30
2022-12-01T06:25:28.787Z,39.90
2022-12-01T06:27:59.745Z,39.10
2022-12-01T06:30:27.490Z,41.50
2022-12-01T06:32:55.346Z,41.90
2022-12-01T06:35:23.104Z,42.60
2022-12-01T06:37:53.330Z,40.50
2022-12-01T06:40:21.126Z,42.70
2022-12-01T06:42:49.094Z,40.20
2022-12-01T06:45:16.977Z,41.10
2022-12-01T06:47:45.021Z,36.40
2022-12-01T06:50:12.762Z,33.20
2022-12-01T06:52:40.502Z,42.10
2022-12-01T06:55:08.674Z,41.80
2022-12-01T06:57:36.376Z,41.50
2022-12-01T07:00:05.135Z,40.30
2022-12-01T07:02:33.153Z,41.90
2022-12-01T07:05:00.913Z,40.00
2022-12-01T07:07:28.690Z,39.40
2022-12-01T07:09:56.709Z,45.20
2022-12-01T07:12:24.496Z,39.40
2022-12-01T07:14:52.286Z,35.30
2022-12-01T07:17:20.296Z,42.80
2022-12-01T07:19:48.364Z,47.00
2022-12-01T07:22:16.426Z,39.60
2022-12-01T07:24:44.239Z,41.60
2022-12-01T07:27:11.934Z,36.60
2022-12-01T07:29:39.651Z,39.30
2022-12-01T07:32:07.702Z,44.10
2022-12-01T07:34:35.426Z,38.00
2022-12-01T07:37:03.285Z,39.10
2022-12-01T07:39:31.101Z,42.10
2022-12-01T07:41:58.938Z,35.90
2022-12-01T07:44:26.827Z,43.60
2022-12-01T07:46:55.114Z,38.80
2022-12-01T07:49:22.859Z,40.30
2022-12-01T07:51:50.535Z,42.50
2022-12-01T07:54:20.308Z,41.40
2022-12-01T07:56:48.162Z,34.80
2022-12-01T07:59:15.938Z,38.20
2022-12-01T08:01:45.479Z,33.70
2022-12-01T08:06:40.952Z,36.20
2022-12-01T08:09:08.825Z,43.30
2022-12-01T08:11:36.724Z,38.90
2022-12-01T08:14:04.498Z,36.60
2022-12-01T08:16:32.343Z,40.70
2022-12-01T08:19:00.343Z,40.30
2022-12-01T08:21:30.441Z,43.00
2022-12-01T08:23:59.140Z,39.40
2022-12-01T08:26:27.666Z,42.00
2022-12-01T08:28:56.170Z,41.30
2022-12-01T08:31:35.936Z,42.20
2022-12-01T08:34:07.394Z,36.50
2022-12-01T08:36:36.007Z,39.00
2022-12-01T08:39:04.061Z,40.80
2022-12-01T08:41:32.119Z,43.90
2022-12-01T08:44:01.002Z,43.30
2022-12-01T08:46:33.401Z,41.40
2022-12-01T08:49:02.731Z,37.90
2022-12-01T08:51:31.193Z,37.10
2022-12-01T08:53:59.952Z,38.80
2022-12-01T08:56:31.470Z,45.40
2022-12-01T08:59:00.112Z,37.30
2022-12-01T09:01:28.285Z,36.20
2022-12-01T09:04:08.955Z,43.00
2022-12-01T09:06:45.540Z,42.90
2022-12-01T09:09:16.483Z,40.10
2022-12-01T09:11:45.335Z,44.30
2022-12-01T09:14:15.007Z,40.40
2022-12-01T09:16:44.443Z,41.70
2022-12-01T09:21:43.532Z,43.60
2022-12-01T09:24:13.371Z,42.40
2022-12-01T09:26:42.790Z,36.10
2022-12-01T09:29:13.776Z,38.20
2022-12-01T09:31:42.753Z,38.50
2022-12-01T09:34:17.690Z,46.70
2022-12-01T09:36:46.922Z,41.50
2022-12-01T09:39:18.489Z,39.10
2022-12-01T09:41:54.446Z,40.80
2022-12-01T09:44:23.656Z,36.30
2022-12-01T09:47:10.748Z,36.00
2022-12-01T09:49:48.174Z,41.00
2022-12-01T09:52:19.315Z,42.30
2022-12-01T09:54:47.964Z,44.70
2022-12-01T09:57:29.956Z,41.20
2022-12-01T09:59:59.829Z,40.00
2022-12-01T10:02:42.654Z,42.40
2022-12-01T10:05:20.102Z,40.20
2022-12-01T10:08:05.661Z,35.40
2022-12-01T10:10:36.125Z,38.10
2022-12-01T10:13:16.636Z,36.30
2022-12-01T10:15:52.668Z,33.70
2022-12-01T10:18:53.710Z,38.90
2022-12-01T10:21:59.871Z,39.10
2022-12-01T10:24:49.084Z,36.50
2022-12-01T10:27:32.635Z,35.40
2022-12-01T10:30:16.280Z,36.00
2022-12-01T10:32:56.289Z,38.10
2022-12-01T10:35:36.357Z,38.70
2022-12-01T10:38:07.252Z,36.90
2022-12-01T10:40:35.400Z,35.40
2022-12-01T10:43:03.377Z,38.50
2022-12-01T10:45:37.276Z,32.00
2022-12-01T10:48:23.485Z,30.90
2022-12-01T10:50:54.155Z,36.80
2022-12-01T10:53:36.725Z,34.00
2022-12-01T10:56:17.103Z,37.80
2022-12-01T10:58:48.805Z,35.00
2022-12-01T11:01:32.018Z,33.80
2022-12-01T11:04:06.411Z,34.00
2022-12-01T11:06:37.001Z,35.70
2022-12-01T11:09:20.255Z,37.10
2022-12-01T11:12:01.647Z,30.80
2022-12-01T11:14:49.567Z,36.00
2022-12-01T11:17:41.226Z,34.20
2022-12-01T11:20:27.935Z,29.00
2022-12-01T11:23:20.560Z,33.10
2022-12-01T11:26:05.736Z,29.30
2022-12-01T11:28:36.504Z,28.80
2022-12-01T11:31:11.408Z,30.40
2022-12-01T11:33:50.936Z,31.90
2022-12-01T11:36:27.076Z,29.40
2022-12-01T11:39:04.772Z,31.90
2022-12-01T11:41:44.470Z,28.50
2022-12-01T11:44:49.781Z,25.40
2022-12-01T11:47:24.401Z,26.20
2022-12-01T11:50:06.903Z,24.00
2022-12-01T11:52:45.385Z,27.80
2022-12-01T11:55:16.921Z,29.40
2022-12-01T11:57:48.486Z,28.90
2022-12-01T12:00:20.657Z,27.10
2022-12-01T12:02:48.555Z,28.80
2022-12-01T12:05:46.343Z,28.50
2022-12-01T12:08:57.646Z,26.50
2022-12-01T12:12:15.453Z,27.40
2022-12-01T12:14:43.494Z,26.40
2022-12-01T12:17:33.473Z,31.20
2022-12-01T12:20:12.400Z,29.10
2022-12-01T12:22:59.403Z,24.90
2022-12-01T12:25:52.577Z,23.90
2022-12-01T12:28:23.276Z,24.70
2022-12-01T12:30:54.965Z,36.10
2022-12-01T12:33:55.713Z,30.90
2022-12-01T12:36:29.560Z,26.70
2022-12-01T12:39:28.558Z,26.60
2022-12-01T12:41:57.813Z,25.30
2022-12-01T12:44:43.852Z,27.80
2022-12-01T12:47:14.236Z,24.60
2022-12-01T12:50:06.228Z,25.60
2022-12-01T12:52:54.872Z,25.70
2022-12-01T12:55:28.558Z,28.60
2022-12-01T12:58:11.043Z,34.60
2022-12-01T13:00:56.391Z,30.30
2022-12-01T13:15:22.736Z,30.20
2022-12-01T13:56:46.326Z,27.60
2022-12-01T14:00:21.888Z,29.40
2022-12-01T14:06:47.196Z,31.70
2022-12-01T14:14:27.724Z,28.00
2022-12-01T14:28:29.304Z,29.80
2022-12-01T14:56:13.551Z,24.20
2022-12-01T15:07:23.393Z,22.90
2022-12-01T15:10:36.859Z,25.40
2022-12-01T15:13:30.860Z,21.50
2022-12-01T15:16:05.122Z,24.20
2022-12-01T15:18:36.732Z,24.10
2022-12-01T15:21:27.074Z,24.90
2022-12-01T15:23:54.995Z,24.10
2022-12-01T15:26:27.204Z,27.10
2022-12-01T15:29:38.620Z,23.10
2022-12-01T15:32:12.602Z,24.20
2022-12-01T15:34:43.922Z,25.10
2022-12-01T15:37:15.788Z,27.40
2022-12-01T15:39:47.429Z,26.80
2022-12-01T15:42:28.323Z,26.50
2022-12-01T15:45:22.032Z,25.70
2022-12-01T15:47:52.014Z,25.60
2022-12-01T15:50:31.075Z,26.60
2022-12-01T15:53:05.656Z,29.10
2022-12-01T15:55:36.632Z,25.30
2022-12-01T15:58:09.605Z,24.70
2022-12-01T16:00:37.748Z,24.40
2022-12-01T16:03:05.816Z,24.50
2022-12-01T16:05:36.129Z,23.40
2022-12-01T16:08:27.949Z,22.90
2022-12-01T16:11:17.421Z,21.40
2022-12-01T16:13:49.248Z,21.30
2022-12-01T16:16:42.116Z,25.90
2022-12-01T16:19:10.202Z,23.40
2022-12-01T16:21:52.202Z,24.80
2022-12-01T16:24:28.151Z,24.90
2022-12-01T16:26:59.049Z,20.30
2022-12-01T16:29:29.256Z,21.10
2022-12-01T16:32:25.920Z,23.00
2022-12-01T16:34:54.195Z,22.00
2022-12-01T16:37:23.151Z,23.70
2022-12-01T16:39:50.952Z,23.40
2022-12-01T16:42:21.280Z,24.90
2022-12-01T16:44:50.642Z,25.50
2022-12-01T16:47:21.830Z,28.30
2022-12-01T16:49:50.357Z,24.90
2022-12-01T16:55:28.202Z,22.80
2022-12-01T16:57:56.038Z,24.00
2022-12-01T17:00:24.238Z,25.70
2022-12-01T17:02:52.896Z,25.10
2022-12-01T17:05:21.305Z,23.50
2022-12-01T17:07:49.607Z,23.50
2022-12-01T17:10:17.976Z,21.80
2022-12-01T17:12:45.970Z,25.20
2022-12-01T17:15:15.461Z,22.70
2022-12-01T17:17:44.347Z,23.80
2022-12-01T17:20:12.905Z,22.10
2022-12-01T17:22:40.676Z,22.80
2022-12-01T17:25:12.308Z,24.80
2022-12-01T17:27:41.896Z,22.90
2022-12-01T17:30:10.881Z,23.50
2022-12-01T17:35:07.537Z,19.10
2022-12-01T17:37:36.991Z,21.10
2022-12-01T17:42:33.981Z,20.70
2022-12-01T17:45:02.265Z,22.40
2022-12-01T17:47:30.120Z,21.90
2022-12-01T17:49:58.000Z,21.70
2022-12-01T17:52:28.577Z,15.20
2022-12-01T17:54:56.842Z,17.90
2022-12-01T17:57:24.899Z,17.20
2022-12-01T17:59:52.687Z,17.70
2022-12-01T18:02:20.509Z,20.20
2022-12-01T18:04:48.671Z,17.20
2022-12-01T18:07:16.828Z,20.50
2022-12-01T18:09:44.887Z,18.70
2022-12-01T18:12:12.907Z,19.70
2022-12-01T18:14:40.828Z,18.80
2022-12-01T18:17:08.650Z,16.70
2022-12-01T18:19:36.627Z,16.50
2022-12-01T18:22:04.481Z,14.20
2022-12-01T18:24:32.458Z,21.20
2022-12-01T18:27:00.460Z,18.40
2022-12-01T18:29:28.920Z,19.40
2022-12-01T18:31:58.912Z,17.90
2022-12-01T18:34:29.482Z,18.80
2022-12-01T18:36:57.740Z,15.40
2022-12-01T18:39:25.555Z,19.20
2022-12-01T18:41:53.613Z,17.60
2022-12-01T18:44:21.537Z,14.90
2022-12-01T18:46:49.677Z,20.90
2022-12-01T18:49:17.639Z,15.20
2022-12-01T18:51:45.483Z,21.30
2022-12-01T18:54:14.898Z,19.90
2022-12-01T18:56:43.356Z,16.20
2022-12-01T18:59:13.979Z,14.60
2022-12-01T19:01:44.228Z,16.00
2022-12-01T19:04:14.150Z,16.20
2022-12-01T19:09:12.626Z,17.70
2022-12-01T19:11:41.616Z,18.00
2022-12-01T19:14:16.139Z,16.80
2022-12-01T19:16:44.809Z,18.50
2022-12-01T19:19:12.744Z,18.80
2022-12-01T19:21:40.772Z,17.30
2022-12-01T19:24:08.897Z,17.90
2022-12-01T19:26:36.697Z,19.20
2022-12-01T19:29:04.463Z,15.90
2022-12-01T19:31:33.161Z,15.50
2022-12-01T19:34:04.405Z,15.10
2022-12-01T19:36:32.180Z,17.30
2022-12-01T19:39:02.610Z,17.10
2022-12-01T19:41:32.171Z,15.40
2022-12-01T19:43:59.967Z,15.80
2022-12-01T19:46:28.873Z,14.90
2022-12-01T19:49:02.954Z,14.20
2022-12-01T19:51:37.597Z,15.60
2022-12-01T19:54:08.577Z,15.30
2022-12-01T19:56:37.171Z,16.10
2022-12-01T19:59:07.731Z,18.50
2022-12-01T20:01:35.502Z,16.70
2022-12-01T20:04:04.494Z,17.70
2022-12-01T20:06:35.104Z,19.80
2022-12-01T20:09:05.866Z,18.10
2022-12-01T20:11:35.358Z,19.60
2022-12-01T20:14:04.944Z,19.10
2022-12-01T20:16:32.772Z,19.00
2022-12-01T20:19:03.071Z,17.10
2022-12-01T20:21:43.286Z,21.00
2022-12-01T20:24:14.041Z,21.30
2022-12-01T20:26:48.036Z,17.40
2022-12-01T20:29:22.689Z,16.20
2022-12-01T20:31:52.924Z,17.40
2022-12-01T20:34:25.921Z,19.60
2022-12-01T20:36:55.143Z,18.50
2022-12-01T20:41:51.654Z,15.30
2022-12-01T20:44:19.923Z,16.90
2022-12-01T20:46:48.355Z,17.30
2022-12-01T20:49:17.493Z,16.90
2022-12-01T20:51:46.441Z,14.80
2022-12-01T20:54:31.289Z,15.80
2022-12-01T20:56:59.319Z,15.20
2022-12-01T20:59:28.606Z,14.70
2022-12-01T21:01:56.526Z,16.30
2022-12-01T21:04:24.481Z,15.00
2022-12-01T21:06:56.011Z,15.70
2022-12-01T21:09:24.142Z,16.70
2022-12-01T21:12:11.204Z,17.10
2022-12-01T21:14:47.441Z,16.30
2022-12-01T21:17:28.389Z,14.10
2022-12-01T21:20:05.164Z,15.00
2022-12-01T21:22:34.336Z,16.30
2022-12-01T21:27:43.475Z,15.70
2022-12-01T21:30:18.811Z,19.00
2022-12-01T21:32:47.834Z,19.70
2022-12-01T21:35:17.730Z,18.10
2022-12-01T21:37:46.940Z,19.20
2022-12-01T21:40:23.866Z,20.10
2022-12-01T21:42:51.984Z,18.30
2022-12-01T21:45:32.090Z,18.00
2022-12-01T21:48:11.295Z,21.10
2022-12-01T21:50:39.149Z,19.70
2022-12-01T21:53:37.101Z,17.30
2022-12-01T21:56:05.092Z,21.50
2022-12-01T21:58:38.392Z,19.50
2022-12-01T22:01:35.774Z,18.10
2022-12-01T22:04:14.186Z,16.30
2022-12-01T22:06:46.450Z,18.50
2022-12-01T22:09:26.905Z,19.70
2022-12-01T22:11:57.365Z,17.90
2022-12-01T22:14:29.953Z,21.10
2022-12-01T22:17:21.338Z,19.20
2022-12-01T22:19:59.282Z,18.30
2022-12-01T22:22:30.364Z,20.40
2022-12-01T22:25:25.656Z,20.60
2022-12-01T22:27:54.512Z,17.70
2022-12-01T22:30:23.895Z,20.20
2022-12-01T22:33:03.804Z,21.30
2022-12-01T22:35:33.788Z,18.10
2022-12-01T22:38:08.900Z,20.00
2022-12-01T22:40:51.684Z,20.50
2022-12-01T22:43:24.705Z,20.20
2022-12-01T22:46:11.683Z,19.50
2022-12-01T22:48:43.149Z,22.60
2022-12-01T22:51:14.214Z,19.70
2022-12-01T22:53:44.043Z,21.90
2022-12-01T22:56:39.912Z,22.00
2022-12-01T22:59:15.867Z,20.20
2022-12-01T23:02:02.194Z,19.30
2022-12-01T23:04:39.911Z,19.10
2022-12-01T23:07:29.385Z,21.90
2022-12-01T23:12:32.464Z,20.10
2022-12-01T23:15:24.993Z,19.60
2022-12-01T23:17:53.625Z,20.90
2022-12-01T23:20:34.243Z,20.10
2022-12-01T23:23:14.611Z,20.60
2022-12-01T23:25:44.105Z,21.30
2022-12-01T23:28:13.170Z,21.70
2022-12-01T23:30:43.747Z,20.20
2022-12-01T23:33:16.866Z,24.20
2022-12-01T23:35:48.677Z,25.10
2022-12-01T23:38:20.937Z,26.70
2022-12-01T23:40:50.231Z,22.90
2022-12-01T23:43:45.823Z,22.40
2022-12-01T23:46:20.730Z,22.90
2022-12-01T23:48:52.589Z,21.80
2022-12-01T23:51:25.687Z,23.40
2022-12-01T23:53:55.929Z,25.80
2022-12-01T23:56:26.587Z,24.60
2022-12-01T23:58:56.179Z,28.40
